Time;durP1;ratioP1;P1;durP2;ratioP2;P2;SDS_P1;SDS_P2;PMS_P1;PMS_P2;Temp;Humidity;BMP_temperature;BMP_pressure;BME280_temperature;BME280_humidity;BME280_pressure;Samples;Min_cycle;Max_cycle;Signal;HPM_P1;HPM_P2
2023/06/16 00:01:13;;;;;;;5.70;3.70;;;;;;;13.55;70.91;97283.50;4931867;29;20063;-86
2023/06/16 00:03:41;;;;;;;6.07;3.95;;;;;;;13.43;71.21;97280.22;4923211;28;20118;-85
2023/06/16 00:06:13;;;;;;;6.82;3.80;;;;;;;13.27;72.18;97278.31;4932346;29;20051;-85
2023/06/16 00:08:54;;;;;;;5.90;3.88;;;;;;;13.24;72.55;97281.56;4930791;28;20043;-85
2023/06/16 00:11:21;;;;;;;6.43;4.25;;;;;;;13.26;71.93;97278.59;4934337;28;20133;-85
2023/06/16 00:13:49;;;;;;;6.25;3.85;;;;;;;13.32;71.75;97279.41;4954023;28;20169;-86
2023/06/16 00:16:20;;;;;;;6.13;3.95;;;;;;;13.42;71.16;97284.84;4915463;29;20665;-87
2023/06/16 00:18:57;;;;;;;5.90;4.32;;;;;;;13.30;71.73;97287.84;4932280;29;20035;-86
2023/06/16 00:21:26;;;;;;;8.73;4.13;;;;;;;13.22;72.34;97283.75;4915641;29;20543;-89
2023/06/16 00:23:56;;;;;;;6.72;4.15;;;;;;;13.20;72.37;97283.19;4917865;28;20055;-89
2023/06/16 00:26:23;;;;;;;7.00;4.10;;;;;;;13.03;73.21;97277.22;4930828;29;20051;-88
2023/06/16 00:28:50;;;;;;;5.97;3.63;;;;;;;13.10;73.23;97286.75;4933886;28;20533;-89
2023/06/16 00:31:17;;;;;;;7.60;4.13;;;;;;;13.18;72.25;97277.25;4934270;29;20048;-89
2023/06/16 00:33:44;;;;;;;6.05;3.88;;;;;;;13.34;71.53;97278.03;4931696;29;20071;-89
2023/06/16 00:36:10;;;;;;;6.55;3.47;;;;;;;13.36;71.36;97275.88;4947006;28;20616;-89
2023/06/16 00:38:37;;;;;;;6.07;4.18;;;;;;;13.33;71.47;97276.41;4932420;28;20135;-90
2023/06/16 00:41:04;;;;;;;6.63;4.45;;;;;;;13.45;70.87;97278.06;4927583;29;20040;-89
2023/06/16 00:43:31;;;;;;;6.35;4.18;;;;;;;13.44;70.63;97279.94;4915647;28;20083;-89
2023/06/16 00:45:57;;;;;;;5.60;4.07;;;;;;;13.51;70.46;97271.53;4933081;29;20050;-88
2023/06/16 00:48:24;;;;;;;6.05;3.90;;;;;;;13.61;69.54;97268.81;4926632;28;20470;-89
2023/06/16 00:50:55;;;;;;;7.47;3.63;;;;;;;13.70;69.11;97269.06;4947600;29;20142;-88
2023/06/16 00:53:22;;;;;;;5.95;3.88;;;;;;;13.69;69.44;97272.06;4933201;29;20047;-88
2023/06/16 00:55:48;;;;;;;6.80;3.85;;;;;;;13.79;68.79;97272.06;4915294;29;20043;-89
2023/06/16 00:58:17;;;;;;;5.93;3.78;;;;;;;13.78;69.02;97267.69;4916746;29;20594;-89
2023/06/16 01:00:45;;;;;;;7.05;4.03;;;;;;;13.70;69.10;97262.81;4937110;28;20089;-90
2023/06/16 01:03:15;;;;;;;5.85;3.67;;;;;;;13.69;69.36;97272.88;4935746;29;20114;-89
2023/06/16 01:05:43;;;;;;;5.78;3.80;;;;;;;13.65;69.42;97264.44;4950074;28;20474;-91
2023/06/16 01:08:41;;;;;;;6.32;4.05;;;;;;;13.67;69.03;97263.38;4935032;29;20046;-89
2023/06/16 01:11:17;;;;;;;5.82;4.20;;;;;;;13.37;70.43;97261.19;4934541;29;20122;-89
2023/06/16 01:13:50;;;;;;;7.28;4.28;;;;;;;13.10;72.33;97266.91;4919301;28;20054;-89
2023/06/16 01:16:22;;;;;;;7.10;4.25;;;;;;;13.02;72.49;97260.09;4935981;28;20062;-89
2023/06/16 01:18:54;;;;;;;6.38;4.57;;;;;;;13.10;72.46;97258.75;4936453;29;20131;-89
2023/06/16 01:21:49;;;;;;;6.13;3.80;;;;;;;13.05;72.11;97264.97;4933385;28;20039;-89
2023/06/16 01:24:18;;;;;;;6.50;4.32;;;;;;;13.14;72.27;97266.09;4934563;28;20047;-92
2023/06/16 01:26:49;;;;;;;;;;;;;;;13.26;71.47;97263.09;4920265;28;20036;-88
2023/06/16 01:29:17;;;;;;;;;;;;;;;13.31;70.98;97261.47;4920362;29;19929;-88
2023/06/16 01:31:44;;;;;;;;;;;;;;;13.31;71.31;97265.00;4935126;28;19923;-89
2023/06/16 01:34:12;;;;;;;;;;;;;;;13.37;70.50;97260.38;4918373;29;19923;-88
2023/06/16 01:36:40;;;;;;;;;;;;;;;13.34;70.67;97264.44;4932830;28;19922;-87
2023/06/16 01:39:11;;;;;;;;;;;;;;;13.25;70.85;97263.38;4929429;29;19922;-89
2023/06/16 01:41:38;;;;;;;;;;;;;;;13.29;71.06;97260.91;4948023;28;20009;-91
2023/06/16 01:44:06;;;;;;;;;;;;;;;13.24;71.19;97259.81;4933970;29;20021;-90
2023/06/16 01:46:33;;;;;;;;;;;;;;;13.30;70.98;97266.09;4923636;28;19969;-88
2023/06/16 01:49:00;;;;;;;;;;;;;;;13.36;70.97;97265.00;4928413;29;19965;-88
2023/06/16 01:51:28;;;;;;;;;;;;;;;13.33;70.75;97262.81;4947946;28;20417;-88
2023/06/16 01:53:56;;;;;;;;;;;;;;;13.26;70.86;97259.56;4942622;28;19934;-88
2023/06/16 01:56:22;;;;;;;;;;;;;;;13.19;71.19;97265.25;4930138;28;19962;-90
2023/06/16 01:58:49;;;;;;;;;;;;;;;13.27;70.64;97267.44;4931376;28;19961;-88
2023/06/16 02:01:20;;;;;;;;;;;;;;;13.32;70.63;97271.25;4927622;28;19922;-91
2023/06/16 02:03:48;;;;;;;;;;;;;;;13.35;70.28;97266.06;4947374;28;19945;-89
2023/06/16 02:06:23;;;;;;;;;;;;;;;13.27;70.86;97272.09;4933754;29;19922;-88
2023/06/16 02:08:52;;;;;;;;;;;;;;;13.22;70.91;97266.63;4931682;28;20016;-90
2023/06/16 02:11:19;;;;;;;;;;;;;;;13.09;71.90;97270.72;4925033;28;19930;-89
2023/06/16 02:13:46;;;;;;;;;;;;;;;12.94;72.83;97268.78;4932249;28;19974;-88
2023/06/16 02:16:12;;;;;;;;;;;;;;;12.75;73.87;97272.84;4948357;28;19954;-88
2023/06/16 02:18:40;;;;;;;;;;;;;;;12.67;74.16;97275.25;4941966;28;19930;-89
2023/06/16 02:21:06;;;;;;;;;;;;;;;12.36;76.33;97267.84;4928243;29;19930;-90
2023/06/16 02:23:33;;;;;;;6.40;4.20;;;;;;;12.34;76.11;97270.81;4931769;28;19934;-88
2023/06/16 02:26:00;;;;;;;5.80;4.30;;;;;;;12.48;75.11;97267.59;4932396;28;20615;-90
2023/06/16 02:28:27;;;;;;;6.53;4.18;;;;;;;12.50;75.30;97268.16;4933161;28;20053;-90
2023/06/16 02:30:54;;;;;;;6.82;4.40;;;;;;;12.30;76.87;97266.19;4929177;28;20039;-88
2023/06/16 02:33:21;;;;;;;6.13;3.97;;;;;;;12.30;76.74;97269.72;4929071;28;20055;-89
2023/06/16 02:35:48;;;;;;;;;;;;;;;12.53;75.48;97267.59;4926860;29;20434;-88
2023/06/16 02:38:14;;;;;;;7.05;4.20;;;;;;;12.27;76.83;97264.81;4930948;29;19922;-90
2023/06/16 02:40:41;;;;;;;6.43;4.25;;;;;;;12.30;76.61;97267.00;4946609;28;20035;-89
2023/06/16 02:43:08;;;;;;;8.02;4.28;;;;;;;12.06;78.26;97274.78;4931633;29;20418;-88
2023/06/16 02:45:35;;;;;;;6.20;4.43;;;;;;;11.88;79.47;97278.72;4931301;28;20086;-92
2023/06/16 02:48:02;;;;;;;6.50;4.75;;;;;;;12.07;78.17;97270.97;4912620;29;20488;-88
2023/06/16 02:50:28;;;;;;;7.63;4.32;;;;;;;12.27;77.08;97264.81;4929172;28;20418;-91
2023/06/16 02:53:00;;;;;;;5.63;4.22;;;;;;;12.32;76.77;97266.75;4924078;29;20590;-90
2023/06/16 02:55:27;;;;;;;;;;;;;;;12.50;75.96;97265.44;4931879;28;20062;-91
2023/06/16 02:57:54;;;;;;;;;;;;;;;12.63;75.03;97266.81;4916098;28;20001;-89
2023/06/16 03:00:22;;;;;;;;;;;;;;;12.67;74.64;97273.34;4927727;28;20420;-89
2023/06/16 03:03:07;;;;;;;;;;;;;;;12.72;74.52;97278.00;4910647;29;19930;-88
2023/06/16 03:05:34;;;;;;;;;;;;;;;12.68;74.57;97274.19;4926666;28;19933;-88
2023/06/16 03:08:03;;;;;;;6.75;4.25;;;;;;;12.61;74.70;97269.81;4948549;22;19922;-67
2023/06/16 03:10:29;;;;;;;6.63;4.50;;;;;;;12.45;75.70;97274.38;4975953;28;20090;-65
2023/06/16 03:13:08;;;;;;;6.75;4.28;;;;;;;11.86;79.57;97273.53;4972871;28;20112;-65
2023/06/16 03:15:36;;;;;;;8.00;4.50;;;;;;;11.62;80.76;97271.25;4975839;28;20052;-64
2023/06/16 03:18:03;;;;;;;;;;;;;;;11.43;82.10;97268.13;4974473;28;20121;-66
2023/06/16 03:20:31;;;;;;;7.20;4.60;;;;;;;11.37;83.26;97270.00;4974182;28;19961;-67
2023/06/16 03:23:04;;;;;;;7.65;4.53;;;;;;;11.36;82.64;97275.66;4966919;28;20050;-65
2023/06/16 03:25:31;;;;;;;7.25;4.57;;;;;;;11.39;82.45;97278.66;4997396;28;20072;-64
2023/06/16 03:27:59;;;;;;;6.30;4.80;;;;;;;11.35;82.96;97277.53;4972424;28;20089;-65
2023/06/16 03:30:25;;;;;;;7.00;4.35;;;;;;;11.35;83.26;97280.25;4972215;28;20112;-66
2023/06/16 03:33:01;;;;;;;7.35;4.35;;;;;;;11.38;82.94;97279.75;4969602;28;20425;-64
2023/06/16 03:35:30;;;;;;;7.85;4.68;;;;;;;11.36;83.17;97281.09;4974260;28;20104;-66
2023/06/16 03:37:59;;;;;;;7.88;4.80;;;;;;;11.28;83.58;97285.09;4977961;28;20034;-65
2023/06/16 03:40:26;;;;;;;8.35;4.65;;;;;;;11.29;83.55;97287.56;4977388;28;20049;-65
2023/06/16 03:42:53;;;;;;;;;;;;;;;11.24;84.01;97284.78;4997813;28;20412;-66
2023/06/16 03:45:20;;;;;;;;;;;;;;;11.31;83.49;97288.09;4975554;28;19922;-67
2023/06/16 03:47:48;;;;;;;;;;;;;;;11.28;83.75;97282.41;4972761;28;19932;-68
2023/06/16 03:50:14;;;;;;;;;;;;;;;11.34;83.74;97284.06;4972351;28;20338;-67
2023/06/16 03:52:42;;;;;;;;;;;;;;;11.29;84.01;97284.84;4972338;28;19929;-68
2023/06/16 03:55:09;;;;;;;;;;;;;;;11.38;83.58;97287.88;4973560;28;19922;-64
2023/06/16 03:57:37;;;;;;;;;;;;;;;11.42;83.61;97285.47;4974201;28;19922;-65
2023/06/16 04:00:08;;;;;;;;;;;;;;;11.34;83.84;97292.19;4971342;28;19925;-69
2023/06/16 04:02:40;;;;;;;;;;;;;;;11.42;83.48;97290.88;4990396;28;20400;-67
2023/06/16 04:05:11;;;;;;;;;;;;;;;11.51;83.09;97294.78;4972340;28;20013;-64
2023/06/16 04:07:38;;;;;;;;;;;;;;;11.58;82.92;97289.13;4973458;28;19930;-65
2023/06/16 04:10:05;;;;;;;;;;;;;;;11.81;81.77;97290.63;4976306;28;19960;-67
2023/06/16 04:12:31;;;;;;;;;;;;;;;12.01;80.68;97294.53;4978923;28;19921;-67
2023/06/16 04:15:02;;;;;;;;;;;;;;;12.23;79.43;97290.84;4979800;28;19921;-67
2023/06/16 04:17:29;;;;;;;;;;;;;;;12.23;79.56;97293.56;4972259;28;19922;-65
2023/06/16 04:19:57;;;;;;;;;;;;;;;12.22;79.40;97292.78;4979833;28;19921;-65
2023/06/16 04:22:24;;;;;;;;;;;;;;;12.25;79.62;97296.84;4971880;28;19921;-64
2023/06/16 04:24:53;;;;;;;;;;;;;;;12.38;79.01;97300.97;4982186;28;19936;-64
2023/06/16 04:27:23;;;;;;;;;;;;;;;12.39;79.42;97296.34;4971596;28;19957;-65
2023/06/16 04:29:52;;;;;;;;;;;;;;;12.35;80.06;97296.88;4976255;28;19928;-65
2023/06/16 04:32:18;;;;;;;;;;;;;;;12.25;80.99;97304.16;4968485;28;19976;-65
2023/06/16 04:34:49;;;;;;;;;;;;;;;12.27;80.64;97308.25;4973350;28;20741;-65
2023/06/16 04:37:18;;;;;;;;;;;;;;;12.37;80.53;97302.06;4975878;28;20410;-68
2023/06/16 04:39:47;;;;;;;;;;;;;;;12.44;80.64;97293.66;4984399;28;19953;-67
2023/06/16 04:42:18;;;;;;;;;;;;;;;12.51;80.08;97299.66;4983864;28;19940;-67
2023/06/16 04:44:45;;;;;;;;;;;;;;;12.67;79.37;97296.97;4987748;28;19922;-65
2023/06/16 04:47:13;;;;;;;;;;;;;;;12.82;78.83;97299.75;4981575;28;19968;-68
2023/06/16 04:49:40;;;;;;;;;;;;;;;12.99;78.39;97302.25;4973524;28;19922;-65
2023/06/16 04:52:07;;;;;;;;;;;;;;;13.16;77.29;97300.34;4996900;28;20471;-65
2023/06/16 04:54:35;;;;;;;;;;;;;;;13.24;76.85;97297.88;4978761;28;19949;-64
2023/06/16 04:57:05;;;;;;;;;;;;;;;13.29;76.98;97302.53;4971739;28;19937;-68
2023/06/16 04:59:32;;;;;;;;;;;;;;;13.37;76.38;97296.53;4980304;28;19971;-67
2023/06/16 05:02:00;;;;;;;;;;;;;;;13.59;75.29;97294.66;4993054;28;20334;-67
2023/06/16 05:04:27;;;;;;;;;;;;;;;13.75;75.79;97292.75;4981731;28;19922;-67
2023/06/16 05:06:53;;;;;;;;;;;;;;;13.76;76.09;97294.38;4999658;28;19925;-65
2023/06/16 05:09:21;;;;;;;;;;;;;;;13.75;75.63;97290.81;4975203;28;19996;-64
2023/06/16 05:11:48;;;;;;;;;;;;;;;13.81;75.54;97301.72;4977562;28;20379;-64
2023/06/16 05:14:14;;;;;;;;;;;;;;;13.90;74.96;97295.41;4994077;28;19922;-64
2023/06/16 05:16:41;;;;;;;;;;;;;;;14.02;74.90;97291.59;4976855;28;19922;-65
2023/06/16 05:19:08;;;;;;;;;;;;;;;14.13;74.56;97298.66;4985182;28;19928;-64
2023/06/16 05:21:42;;;;;;;;;;;;;;;14.28;73.89;97294.22;4982565;28;20400;-64
2023/06/16 05:24:09;;;;;;;;;;;;;;;14.38;74.29;97286.00;4998351;28;19929;-64
2023/06/16 05:26:35;;;;;;;;;;;;;;;14.51;73.64;97297.38;4992413;28;19961;-65
2023/06/16 05:29:02;;;;;;;;;;;;;;;14.62;73.12;97293.53;4987197;28;20036;-65
2023/06/16 05:31:29;;;;;;;;;;;;;;;14.72;73.30;97289.94;4992836;28;19929;-64
2023/06/16 05:33:55;;;;;;;;;;;;;;;14.76;73.96;97290.19;4975477;28;19921;-65
2023/06/16 05:36:24;;;;;;;;;;;;;;;14.89;73.49;97296.97;4986975;28;20312;-65
2023/06/16 05:38:51;;;;;;;;;;;;;;;15.00;72.35;97290.34;4978105;28;20479;-64
2023/06/16 05:41:23;;;;;;;;;;;;;;;15.14;72.50;97295.97;4979929;28;19925;-64
2023/06/16 05:43:53;;;;;;;;;;;;;;;15.28;71.69;97300.78;4974530;28;19925;-65
2023/06/16 05:46:21;;;;;;;;;;;;;;;15.43;71.20;97292.47;4975276;28;19968;-64
2023/06/16 05:48:47;;;;;;;;;;;;;;;15.56;70.13;97292.91;4993145;28;19944;-65
2023/06/16 05:51:14;;;;;;;;;;;;;;;15.71;69.78;97298.22;4972407;28;20016;-65
2023/06/16 05:53:40;;;;;;;;;;;;;;;15.88;68.59;97299.69;4994230;28;20012;-64
2023/06/16 05:56:07;;;;;;;;;;;;;;;16.03;68.18;97297.97;4979548;28;19953;-64
2023/06/16 05:58:35;;;;;;;;;;;;;;;16.21;67.07;97294.47;4981438;28;20020;-65
2023/06/16 06:01:06;;;;;;;;;;;;;;;16.38;66.71;97298.66;4968582;28;20005;-64
2023/06/16 06:03:35;;;;;;;;;;;;;;;16.55;66.02;97302.81;4974096;28;19957;-64
2023/06/16 06:06:03;;;;;;;;;;;;;;;16.70;65.42;97308.06;4974046;28;19968;-64
2023/06/16 06:08:30;;;;;;;;;;;;;;;16.83;64.30;97306.56;4975616;28;19980;-64
2023/06/16 06:11:01;;;;;;;;;;;;;;;16.95;62.93;97303.38;4972652;28;19944;-64
2023/06/16 06:13:28;;;;;;;;;;;;;;;17.12;62.16;97304.81;4977244;28;19933;-65
2023/06/16 06:15:55;;;;;;;;;;;;;;;17.25;62.00;97309.53;4980495;28;19963;-64
2023/06/16 06:18:21;;;;;;;;;;;;;;;17.35;61.63;97316.75;4976631;28;19984;-64
2023/06/16 06:20:49;;;;;;;;;;;;;;;17.49;60.59;97324.22;4973857;28;19921;-64
2023/06/16 06:23:16;;;;;;;6.47;3.55;;;;;;;17.62;59.81;97322.66;4990453;28;20006;-64
2023/06/16 06:25:42;;;;;;;5.32;3.70;;;;;;;17.75;55.64;97323.78;4975236;28;20418;-64
2023/06/16 06:28:11;;;;;;;6.22;3.70;;;;;;;17.85;54.53;97323.63;4973151;28;20069;-64
2023/06/16 06:30:39;;;;;;;5.75;3.22;;;;;;;17.93;55.21;97322.09;4978034;28;20046;-64
2023/06/16 06:33:05;;;;;;;5.28;3.03;;;;;;;18.08;51.75;97332.00;4970937;28;20049;-64
2023/06/16 06:35:32;;;;;;;7.85;3.30;;;;;;;18.26;49.13;97341.25;4972933;28;20047;-65
2023/06/16 06:38:01;;;;;;;6.50;3.17;;;;;;;18.41;47.69;97342.06;4972535;28;20051;-64
2023/06/16 06:40:28;;;;;;;7.32;3.25;;;;;;;18.57;47.31;97340.66;4972156;28;20038;-64
2023/06/16 06:42:55;;;;;;;7.00;2.97;;;;;;;18.72;47.36;97344.19;4989587;28;20092;-63
2023/06/16 06:45:29;;;;;;;5.40;2.83;;;;;;;18.78;47.03;97347.63;4973457;28;20452;-64
2023/06/16 06:47:56;;;;;;;6.68;3.15;;;;;;;18.89;48.97;97346.31;4973500;28;20132;-64
2023/06/16 06:50:23;;;;;;;4.82;2.67;;;;;;;19.00;47.93;97351.56;4973164;28;20137;-64
2023/06/16 06:52:50;;;;;;;5.97;3.28;;;;;;;19.06;47.43;97342.13;4993508;28;20038;-64
2023/06/16 06:55:17;;;;;;;5.97;3.13;;;;;;;19.12;48.46;97343.63;4998951;28;20112;-64
2023/06/16 06:57:44;;;;;;;6.18;3.38;;;;;;;19.19;49.50;97344.03;4989208;28;21248;-64
2023/06/16 07:00:11;;;;;;;5.45;3.03;;;;;;;19.20;47.46;97347.59;4989772;28;20096;-64
2023/06/16 07:02:38;;;;;;;5.00;2.60;;;;;;;19.24;47.84;97357.63;4990793;28;20038;-65
2023/06/16 07:05:06;;;;;;;9.38;3.25;;;;;;;19.29;47.00;97353.16;4988007;28;20114;-64
2023/06/16 07:07:32;;;;;;;7.55;3.00;;;;;;;19.41;46.48;97355.34;4990828;28;20565;-64
2023/06/16 07:09:59;;;;;;;6.78;3.28;;;;;;;19.52;44.20;97355.91;4998800;28;20038;-64
2023/06/16 07:12:26;;;;;;;5.78;2.97;;;;;;;19.65;43.58;97368.78;4992263;28;20034;-64
2023/06/16 07:14:52;;;;;;;6.07;3.08;;;;;;;19.74;42.65;97361.41;4992526;28;20049;-64
2023/06/16 07:17:19;;;;;;;6.28;3.08;;;;;;;19.85;43.46;97372.13;4992007;28;20050;-63
2023/06/16 07:19:46;;;;;;;5.57;2.72;;;;;;;19.95;42.28;97376.56;4997018;28;20494;-64
2023/06/16 07:22:12;;;;;;;5.80;3.45;;;;;;;19.89;42.89;97373.97;4992813;28;20038;-63
2023/06/16 07:24:39;;;;;;;4.80;2.92;;;;;;;19.92;42.06;97377.19;4990023;28;20117;-63
2023/06/16 07:27:06;;;;;;;5.90;2.58;;;;;;;19.98;43.08;97373.19;4992345;28;20120;-63
2023/06/16 07:29:32;;;;;;;5.80;2.35;;;;;;;20.11;43.16;97371.50;4998892;28;20046;-63
2023/06/16 07:31:59;;;;;;;6.68;2.78;;;;;;;20.19;43.00;97379.00;4988372;28;20676;-63
2023/06/16 07:34:26;;;;;;;5.25;3.40;;;;;;;20.28;42.76;97368.06;4988679;28;20049;-64
2023/06/16 07:36:52;;;;;;;8.88;3.60;;;;;;;20.26;41.15;97373.03;4989810;28;20428;-64
2023/06/16 07:39:21;;;;;;;5.35;2.80;;;;;;;20.25;41.83;97366.75;4994415;28;20057;-63
2023/06/16 07:41:47;;;;;;;4.40;2.60;;;;;;;20.34;39.00;97365.97;4990694;28;20048;-63
2023/06/16 07:44:14;;;;;;;4.72;2.97;;;;;;;20.34;39.81;97369.53;4989708;28;20046;-63
2023/06/16 07:46:45;;;;;;;4.72;2.72;;;;;;;20.45;40.07;97367.31;4989999;28;20042;-63
2023/06/16 07:49:14;;;;;;;5.38;2.92;;;;;;;20.62;39.50;97365.75;4994183;28;20046;-63
2023/06/16 07:51:41;;;;;;;6.40;2.85;;;;;;;20.77;38.39;97376.34;4991247;28;20061;-63
2023/06/16 07:54:08;;;;;;;6.68;2.63;;;;;;;20.90;38.48;97371.84;4992332;28;20049;-63
2023/06/16 07:56:34;;;;;;;5.70;2.83;;;;;;;21.03;37.42;97372.84;4989213;28;20051;-63
2023/06/16 07:59:01;;;;;;;5.50;2.40;;;;;;;21.06;35.21;97374.16;4990190;28;20528;-63
2023/06/16 08:01:27;;;;;;;4.18;2.45;;;;;;;21.10;36.25;97360.53;4987447;28;20402;-64
2023/06/16 08:03:54;;;;;;;5.35;2.97;;;;;;;21.20;35.09;97384.22;4987036;28;20125;-64
2023/06/16 08:06:21;;;;;;;5.63;2.55;;;;;;;21.08;34.11;97369.13;4993230;28;20042;-63
2023/06/16 08:08:49;;;;;;;4.55;2.70;;;;;;;21.13;34.94;97376.44;5005737;28;20674;-62
2023/06/16 08:11:15;;;;;;;4.75;2.75;;;;;;;21.30;33.05;97372.91;5000410;28;20046;-63
2023/06/16 08:13:42;;;;;;;7.78;2.65;;;;;;;21.51;33.01;97375.00;4992994;28;20038;-63
2023/06/16 08:16:08;;;;;;;4.15;2.40;;;;;;;21.52;31.37;97371.13;4998570;28;20037;-63
2023/06/16 08:18:35;;;;;;;9.02;2.88;;;;;;;21.62;32.47;97369.97;4994496;28;20046;-63
2023/06/16 08:21:04;;;;;;;5.93;2.50;;;;;;;21.80;32.19;97373.53;4993800;28;20108;-63
2023/06/16 08:23:34;;;;;;;4.65;2.33;;;;;;;21.81;31.19;97370.47;4993311;28;20158;-62
2023/06/16 08:26:01;;;;;;;4.78;2.35;;;;;;;21.86;31.88;97361.22;4998722;28;20077;-63
2023/06/16 08:28:29;;;;;;;5.15;2.70;;;;;;;21.87;32.29;97368.34;4992346;28;20073;-64
2023/06/16 08:30:56;;;;;;;10.23;2.50;;;;;;;21.80;32.81;97368.03;4990784;28;20042;-63
2023/06/16 08:33:22;;;;;;;6.88;2.95;;;;;;;21.64;32.54;97365.75;4992611;28;20038;-62
2023/06/16 08:35:50;;;;;;;5.47;2.70;;;;;;;21.58;34.31;97372.56;4993183;28;20134;-63
2023/06/16 08:38:17;;;;;;;5.95;3.25;;;;;;;21.70;32.61;97360.88;4993306;28;20509;-64
2023/06/16 08:40:43;;;;;;;6.40;2.83;;;;;;;21.81;34.37;97364.13;4994326;28;20042;-65
2023/06/16 08:43:12;;;;;;;7.93;3.05;;;;;;;21.88;34.11;97361.69;4993228;28;20050;-64
2023/06/16 08:45:40;;;;;;;9.98;2.70;;;;;;;21.92;32.54;97375.63;4999734;28;20121;-64
2023/06/16 08:48:06;;;;;;;5.75;2.58;;;;;;;21.89;33.12;97377.09;5002508;28;20034;-63
2023/06/16 08:50:34;;;;;;;8.98;3.03;;;;;;;21.87;33.27;97373.88;4994435;28;20085;-64
2023/06/16 08:53:01;;;;;;;6.05;2.85;;;;;;;21.86;34.63;97369.50;4998626;28;20038;-64
2023/06/16 08:55:29;;;;;;;5.25;3.63;;;;;;;21.86;34.83;97368.69;4996487;28;20121;-64
2023/06/16 08:57:58;;;;;;;8.25;3.10;;;;;;;21.91;33.87;97366.56;4991753;28;20038;-65
2023/06/16 09:00:26;;;;;;;5.80;2.75;;;;;;;22.14;32.91;97369.09;4993833;28;20038;-64
2023/06/16 09:02:56;;;;;;;5.13;2.70;;;;;;;22.25;32.73;97366.78;4998163;28;20116;-64
2023/06/16 09:05:26;;;;;;;5.43;3.03;;;;;;;22.30;33.07;97363.84;4991497;28;20047;-64
2023/06/16 09:07:53;;;;;;;4.93;2.97;;;;;;;22.11;32.47;97361.47;4993214;28;20402;-64
2023/06/16 09:10:20;;;;;;;4.85;2.85;;;;;;;22.19;32.91;97362.59;4991026;28;20042;-64
2023/06/16 09:12:52;;;;;;;5.45;2.95;;;;;;;22.24;33.76;97353.31;4991580;28;20035;-64
2023/06/16 09:15:20;;;;;;;5.25;2.70;;;;;;;22.33;32.59;97363.19;4993062;28;20050;-64
2023/06/16 09:17:48;;;;;;;5.50;2.60;;;;;;;22.35;32.36;97360.13;4997048;28;20104;-64
2023/06/16 09:20:19;;;;;;;5.32;2.90;;;;;;;22.56;32.59;97360.19;4991279;28;20103;-64
2023/06/16 09:22:49;;;;;;;4.78;3.05;;;;;;;22.63;33.02;97361.66;4997655;28;20153;-64
2023/06/16 09:25:16;;;;;;;8.68;2.90;;;;;;;22.60;32.47;97365.88;4993159;28;20097;-64
2023/06/16 09:27:49;;;;;;;6.10;2.83;;;;;;;22.47;33.17;97362.97;4992528;28;20436;-64
2023/06/16 09:30:18;;;;;;;5.85;3.13;;;;;;;22.22;32.33;97361.94;4992166;28;20052;-66
2023/06/16 09:32:47;;;;;;;6.82;2.78;;;;;;;22.29;33.61;97356.72;4991309;28;20049;-65
2023/06/16 09:35:22;;;;;;;4.38;2.67;;;;;;;22.46;33.81;97347.59;4990786;28;20054;-64
2023/06/16 09:37:50;;;;;;;5.20;2.80;;;;;;;22.59;32.02;97356.78;4997911;28;20046;-65
2023/06/16 09:40:19;;;;;;;5.13;2.80;;;;;;;22.75;31.84;97342.44;4982381;28;20046;-65
2023/06/16 09:42:48;;;;;;;4.32;2.58;;;;;;;22.72;31.60;97349.44;4991984;28;20034;-64
2023/06/16 09:45:17;;;;;;;5.25;3.00;;;;;;;22.74;32.13;97349.91;4995361;28;20100;-65
2023/06/16 09:47:45;;;;;;;7.90;2.78;;;;;;;22.64;32.10;97339.25;4997948;28;20046;-65
2023/06/16 09:50:17;;;;;;;4.47;2.90;;;;;;;22.70;32.56;97348.16;4991568;28;20137;-65
2023/06/16 09:52:46;;;;;;;6.90;3.47;;;;;;;22.82;32.14;97350.97;4990573;28;20509;-65
2023/06/16 09:55:13;;;;;;;5.80;3.42;;;;;;;22.61;33.17;97339.91;4994648;28;20408;-64
2023/06/16 09:57:45;;;;;;;6.32;3.10;;;;;;;22.41;33.90;97349.72;4992873;28;20050;-66
2023/06/16 10:00:17;;;;;;;6.93;2.97;;;;;;;22.27;33.60;97349.91;4988198;28;20046;-65
2023/06/16 10:02:46;;;;;;;6.43;4.18;;;;;;;22.46;32.61;97336.56;4997681;28;20050;-64
2023/06/16 10:05:16;;;;;;;7.15;2.80;;;;;;;22.59;32.11;97342.19;4990586;28;20039;-64
2023/06/16 10:07:46;;;;;;;6.90;3.10;;;;;;;22.79;32.53;97350.84;4990673;28;20077;-65
2023/06/16 10:10:14;;;;;;;5.50;2.78;;;;;;;22.86;32.08;97351.94;4972766;28;20042;-64
2023/06/16 10:12:46;;;;;;;4.88;2.80;;;;;;;22.88;31.72;97351.59;4996246;28;20038;-66
2023/06/16 10:15:22;;;;;;;5.90;3.22;;;;;;;22.82;31.87;97337.19;4997233;28;20050;-65
2023/06/16 10:17:50;;;;;;;4.97;2.70;;;;;;;22.79;32.08;97345.31;4996908;28;20046;-64
2023/06/16 10:20:20;;;;;;;6.50;2.97;;;;;;;22.69;30.75;97347.34;4994217;28;20050;-64
2023/06/16 10:22:48;;;;;;;4.65;3.03;;;;;;;22.71;32.09;97341.47;4987994;28;20038;-65
2023/06/16 10:25:15;;;;;;;6.40;2.90;;;;;;;22.94;31.22;97339.22;4975901;28;20038;-66
2023/06/16 10:27:42;;;;;;;5.47;2.90;;;;;;;23.10;31.42;97333.91;4990534;28;20478;-66
2023/06/16 10:30:16;;;;;;;14.70;3.30;;;;;;;23.34;31.07;97332.47;4989558;28;20038;-65
2023/06/16 10:32:55;;;;;;;5.55;3.22;;;;;;;23.39;30.71;97336.97;4982895;28;20405;-65
2023/06/16 10:35:22;;;;;;;4.90;2.50;;;;;;;23.43;30.71;97328.84;4993328;28;20046;-65
2023/06/16 10:37:53;;;;;;;4.63;2.80;;;;;;;23.41;30.90;97336.66;4994842;28;20038;-65
2023/06/16 10:40:21;;;;;;;5.53;2.80;;;;;;;23.14;30.54;97336.81;4994441;28;20050;-65
2023/06/16 10:42:52;;;;;;;5.47;3.20;;;;;;;23.21;29.49;97339.84;4994273;28;20042;-65
2023/06/16 10:45:26;;;;;;;7.53;3.35;;;;;;;23.33;30.74;97336.34;4990555;28;20054;-65
2023/06/16 10:47:58;;;;;;;6.97;3.10;;;;;;;23.40;30.36;97340.56;4989385;28;20650;-65
2023/06/16 10:50:34;;;;;;;7.53;2.70;;;;;;;23.60;31.47;97338.91;4987424;28;20042;-66
2023/06/16 10:53:11;;;;;;;4.05;2.42;;;;;;;23.78;31.29;97329.28;5003277;28;20116;-66
2023/06/16 10:55:42;;;;;;;6.28;2.90;;;;;;;23.85;28.83;97336.25;4993123;28;20035;-65
2023/06/16 10:58:20;;;;;;;6.82;3.05;;;;;;;23.86;29.98;97340.63;4991903;28;20034;-65
2023/06/16 11:00:58;;;;;;;5.93;3.40;;;;;;;23.83;29.72;97330.22;4989844;28;20042;-65
2023/06/16 11:03:33;;;;;;;6.20;2.70;;;;;;;23.78;28.83;97337.59;4988518;28;20042;-66
2023/06/16 11:06:01;;;;;;;8.00;3.30;;;;;;;23.91;30.09;97348.69;4988925;28;20137;-66
2023/06/16 11:08:28;;;;;;;7.13;3.30;;;;;;;23.95;30.72;97340.53;4989224;28;20042;-65
2023/06/16 11:11:04;;;;;;;7.18;3.15;;;;;;;23.83;30.14;97342.09;4988476;28;20034;-66
2023/06/16 11:13:38;;;;;;;5.15;2.75;;;;;;;23.73;30.24;97346.09;4988324;28;20042;-66
2023/06/16 11:16:06;;;;;;;5.05;2.80;;;;;;;23.90;30.25;97336.03;4988330;28;20060;-67
2023/06/16 11:18:33;;;;;;;6.65;2.85;;;;;;;24.04;30.06;97335.72;4984333;28;20042;-65
2023/06/16 11:21:02;;;;;;;9.98;3.88;;;;;;;24.23;30.08;97337.16;4968560;28;20046;-65
2023/06/16 11:23:29;;;;;;;8.10;3.17;;;;;;;24.20;29.42;97333.13;4988357;28;20117;-65
2023/06/16 11:26:07;;;;;;;7.72;3.05;;;;;;;24.34;28.95;97343.03;4990582;28;20069;-65
2023/06/16 11:28:40;;;;;;;5.22;2.70;;;;;;;24.50;28.52;97329.31;4997084;28;20046;-67
2023/06/16 11:31:08;;;;;;;6.45;3.50;;;;;;;24.38;28.51;97330.94;4996257;28;20073;-65
2023/06/16 11:33:36;;;;;;;12.32;3.10;;;;;;;24.07;29.04;97326.75;4985718;28;20133;-65
2023/06/16 11:36:17;;;;;;;6.70;3.03;;;;;;;24.32;28.79;97321.25;4996179;28;20048;-65
2023/06/16 11:38:45;;;;;;;7.13;3.47;;;;;;;24.36;29.72;97311.09;4990580;28;20056;-65
2023/06/16 11:41:38;;;;;;;6.10;3.42;;;;;;;24.37;29.59;97309.16;4971399;28;20553;-66
2023/06/16 11:44:14;;;;;;;6.57;3.50;;;;;;;24.50;29.15;97315.50;4984936;28;20114;-65
2023/06/16 11:46:40;;;;;;;5.82;3.03;;;;;;;24.53;28.94;97323.94;4991307;28;20042;-64
2023/06/16 11:49:07;;;;;;;5.47;3.22;;;;;;;24.45;28.08;97335.09;4984992;28;20061;-65
2023/06/16 11:51:33;;;;;;;7.65;3.30;;;;;;;24.45;28.44;97313.78;4987566;28;20046;-65
2023/06/16 11:54:01;;;;;;;6.85;2.90;;;;;;;24.44;28.29;97309.41;4988860;28;20083;-64
2023/06/16 11:56:28;;;;;;;4.93;3.28;;;;;;;24.31;29.28;97321.59;4989393;28;20049;-65
2023/06/16 11:58:54;;;;;;;7.82;2.88;;;;;;;24.33;29.51;97316.53;4988597;28;20648;-65
2023/06/16 12:01:22;;;;;;;8.30;3.60;;;;;;;24.45;29.30;97313.78;4987658;28;20049;-65
2023/06/16 12:03:49;;;;;;;7.25;3.17;;;;;;;24.45;29.81;97315.72;4990660;28;20072;-64